sensor_id;sensor_type;location;lat;lon;timestamp;P1;durP1;ratioP1;P2;durP2;ratioP2
23015;SDS011;11674;52.428;13.584;2023-10-08T00:01:26;7.00;;;1.85;;
23015;SDS011;11674;52.428;13.584;2023-10-08T00:06:33;9.43;;;1.95;;
23015;SDS011;11674;52.428;13.584;2023-10-08T00:11:42;14.38;;;6.43;;
23015;SDS011;11674;52.428;13.584;2023-10-08T00:16:50;7.38;;;2.60;;
23015;SDS011;11674;52.428;13.584;2023-10-08T00:21:59;14.63;;;4.45;;
23015;SDS011;11674;52.428;13.584;2023-10-08T00:27:09;12.77;;;5.53;;
23015;SDS011;11674;52.428;13.584;2023-10-08T00:32:16;19.05;;;6.30;;
23015;SDS011;11674;52.428;13.584;2023-10-08T00:37:25;12.27;;;6.25;;
23015;SDS011;11674;52.428;13.584;2023-10-08T00:42:32;15.52;;;5.80;;
23015;SDS011;11674;52.428;13.584;2023-10-08T00:47:47;12.55;;;5.20;;
23015;SDS011;11674;52.428;13.584;2023-10-08T00:52:56;15.75;;;5.63;;
23015;SDS011;11674;52.428;13.584;2023-10-08T00:58:04;12.70;;;4.20;;
23015;SDS011;11674;52.428;13.584;2023-10-08T01:03:13;12.38;;;3.35;;
23015;SDS011;11674;52.428;13.584;2023-10-08T01:08:20;11.23;;;3.55;;
23015;SDS011;11674;52.428;13.584;2023-10-08T01:13:35;11.52;;;3.28;;
23015;SDS011;11674;52.428;13.584;2023-10-08T01:18:44;15.27;;;3.17;;
23015;SDS011;11674;52.428;13.584;2023-10-08T01:23:51;12.18;;;2.67;;
23015;SDS011;11674;52.428;13.584;2023-10-08T01:29:08;7.35;;;2.47;;
23015;SDS011;11674;52.428;13.584;2023-10-08T01:34:22;14.80;;;4.13;;
23015;SDS011;11674;52.428;13.584;2023-10-08T01:39:29;10.40;;;3.05;;
23015;SDS011;11674;52.428;13.584;2023-10-08T01:44:44;9.73;;;2.40;;
23015;SDS011;11674;52.428;13.584;2023-10-08T01:49:55;8.45;;;2.10;;
23015;SDS011;11674;52.428;13.584;2023-10-08T01:55:03;9.90;;;2.28;;
23015;SDS011;11674;52.428;13.584;2023-10-08T02:00:15;7.07;;;2.25;;
23015;SDS011;11674;52.428;13.584;2023-10-08T02:05:30;10.40;;;2.30;;
23015;SDS011;11674;52.428;13.584;2023-10-08T02:10:37;10.75;;;2.38;;
23015;SDS011;11674;52.428;13.584;2023-10-08T02:15:48;10.70;;;2.42;;
23015;SDS011;11674;52.428;13.584;2023-10-08T02:20:57;7.33;;;2.00;;
23015;SDS011;11674;52.428;13.584;2023-10-08T02:26:04;9.65;;;2.35;;
23015;SDS011;11674;52.428;13.584;2023-10-08T02:31:20;11.98;;;4.35;;
23015;SDS011;11674;52.428;13.584;2023-10-08T02:36:27;10.82;;;3.65;;
23015;SDS011;11674;52.428;13.584;2023-10-08T02:41:41;11.65;;;2.45;;
23015;SDS011;11674;52.428;13.584;2023-10-08T02:46:48;10.32;;;2.03;;
23015;SDS011;11674;52.428;13.584;2023-10-08T02:52:00;13.40;;;2.70;;
23015;SDS011;11674;52.428;13.584;2023-10-08T02:57:10;16.35;;;3.00;;
23015;SDS011;11674;52.428;13.584;2023-10-08T03:02:17;14.75;;;2.88;;
23015;SDS011;11674;52.428;13.584;2023-10-08T03:07:29;14.77;;;3.25;;
23015;SDS011;11674;52.428;13.584;2023-10-08T03:12:36;19.40;;;4.38;;
23015;SDS011;11674;52.428;13.584;2023-10-08T03:17:43;16.27;;;2.88;;
23015;SDS011;11674;52.428;13.584;2023-10-08T03:22:58;10.75;;;2.90;;
23015;SDS011;11674;52.428;13.584;2023-10-08T03:28:08;13.23;;;3.42;;
23015;SDS011;11674;52.428;13.584;2023-10-08T03:33:18;17.58;;;2.72;;
23015;SDS011;11674;52.428;13.584;2023-10-08T03:38:25;11.70;;;3.33;;
23015;SDS011;11674;52.428;13.584;2023-10-08T03:43:34;13.63;;;3.45;;
23015;SDS011;11674;52.428;13.584;2023-10-08T03:48:43;12.30;;;2.85;;
23015;SDS011;11674;52.428;13.584;2023-10-08T03:53:50;14.45;;;3.00;;
23015;SDS011;11674;52.428;13.584;2023-10-08T03:58:57;13.40;;;2.95;;
23015;SDS011;11674;52.428;13.584;2023-10-08T04:04:04;12.07;;;2.88;;
23015;SDS011;11674;52.428;13.584;2023-10-08T04:09:14;14.93;;;2.90;;
23015;SDS011;11674;52.428;13.584;2023-10-08T04:14:22;12.30;;;2.83;;
23015;SDS011;11674;52.428;13.584;2023-10-08T04:19:34;14.70;;;3.33;;
23015;SDS011;11674;52.428;13.584;2023-10-08T04:24:43;13.63;;;2.90;;
23015;SDS011;11674;52.428;13.584;2023-10-08T04:29:50;8.68;;;2.75;;
23015;SDS011;11674;52.428;13.584;2023-10-08T04:40:12;8.30;;;2.10;;
23015;SDS011;11674;52.428;13.584;2023-10-08T04:45:21;13.32;;;2.70;;
23015;SDS011;11674;52.428;13.584;2023-10-08T04:50:30;16.23;;;2.92;;
23015;SDS011;11674;52.428;13.584;2023-10-08T04:55:37;11.88;;;2.63;;
23015;SDS011;11674;52.428;13.584;2023-10-08T05:00:46;11.18;;;2.70;;
23015;SDS011;11674;52.428;13.584;2023-10-08T05:05:55;13.23;;;2.72;;
23015;SDS011;11674;52.428;13.584;2023-10-08T05:11:06;11.00;;;2.63;;
23015;SDS011;11674;52.428;13.584;2023-10-08T05:16:14;14.48;;;3.00;;
23015;SDS011;11674;52.428;13.584;2023-10-08T05:21:21;9.57;;;2.65;;
23015;SDS011;11674;52.428;13.584;2023-10-08T05:26:28;10.18;;;3.00;;
23015;SDS011;11674;52.428;13.584;2023-10-08T05:31:42;11.35;;;3.00;;
23015;SDS011;11674;52.428;13.584;2023-10-08T05:36:53;14.20;;;2.70;;
23015;SDS011;11674;52.428;13.584;2023-10-08T05:42:07;18.15;;;3.20;;
23015;SDS011;11674;52.428;13.584;2023-10-08T05:47:15;16.27;;;3.17;;
23015;SDS011;11674;52.428;13.584;2023-10-08T05:52:26;13.85;;;3.10;;
23015;SDS011;11674;52.428;13.584;2023-10-08T05:57:35;11.93;;;3.10;;
23015;SDS011;11674;52.428;13.584;2023-10-08T06:02:46;11.90;;;2.90;;
23015;SDS011;11674;52.428;13.584;2023-10-08T06:07:55;13.60;;;3.03;;
23015;SDS011;11674;52.428;13.584;2023-10-08T06:13:03;10.48;;;2.72;;
23015;SDS011;11674;52.428;13.584;2023-10-08T06:18:13;14.80;;;3.20;;
23015;SDS011;11674;52.428;13.584;2023-10-08T06:23:41;12.05;;;2.80;;
23015;SDS011;11674;52.428;13.584;2023-10-08T06:28:48;15.80;;;3.30;;
23015;SDS011;11674;52.428;13.584;2023-10-08T06:33:58;13.77;;;2.80;;
23015;SDS011;11674;52.428;13.584;2023-10-08T06:39:05;12.80;;;3.08;;
23015;SDS011;11674;52.428;13.584;2023-10-08T06:44:12;14.63;;;2.85;;
23015;SDS011;11674;52.428;13.584;2023-10-08T06:49:22;13.30;;;2.72;;
23015;SDS011;11674;52.428;13.584;2023-10-08T06:54:29;8.00;;;1.92;;
23015;SDS011;11674;52.428;13.584;2023-10-08T06:59:36;13.15;;;2.35;;
23015;SDS011;11674;52.428;13.584;2023-10-08T07:04:43;6.05;;;1.98;;
23015;SDS011;11674;52.428;13.584;2023-10-08T07:09:50;8.18;;;2.20;;
23015;SDS011;11674;52.428;13.584;2023-10-08T07:14:57;7.18;;;1.90;;
23015;SDS011;11674;52.428;13.584;2023-10-08T07:20:06;14.32;;;2.33;;
23015;SDS011;11674;52.428;13.584;2023-10-08T07:25:13;7.57;;;1.92;;
23015;SDS011;11674;52.428;13.584;2023-10-08T07:30:20;6.50;;;1.52;;
23015;SDS011;11674;52.428;13.584;2023-10-08T07:35:30;7.50;;;1.60;;
23015;SDS011;11674;52.428;13.584;2023-10-08T07:40:43;3.63;;;1.40;;
23015;SDS011;11674;52.428;13.584;2023-10-08T07:45:50;3.92;;;1.30;;
23015;SDS011;11674;52.428;13.584;2023-10-08T07:50:59;2.55;;;1.27;;
23015;SDS011;11674;52.428;13.584;2023-10-08T07:56:06;3.50;;;1.30;;
23015;SDS011;11674;52.428;13.584;2023-10-08T08:01:13;4.85;;;1.08;;
23015;SDS011;11674;52.428;13.584;2023-10-08T08:06:22;4.85;;;1.13;;
23015;SDS011;11674;52.428;13.584;2023-10-08T08:11:29;4.25;;;1.20;;
23015;SDS011;11674;52.428;13.584;2023-10-08T08:16:37;2.97;;;1.17;;
23015;SDS011;11674;52.428;13.584;2023-10-08T08:21:46;3.10;;;1.25;;
23015;SDS011;11674;52.428;13.584;2023-10-08T08:26:56;4.07;;;1.30;;
23015;SDS011;11674;52.428;13.584;2023-10-08T08:32:03;3.75;;;1.42;;
23015;SDS011;11674;52.428;13.584;2023-10-08T08:37:13;5.00;;;1.30;;
23015;SDS011;11674;52.428;13.584;2023-10-08T08:42:21;3.88;;;1.27;;
23015;SDS011;11674;52.428;13.584;2023-10-08T08:47:29;2.95;;;1.40;;
23015;SDS011;11674;52.428;13.584;2023-10-08T08:52:38;2.88;;;1.13;;
23015;SDS011;11674;52.428;13.584;2023-10-08T08:57:47;2.08;;;1.33;;
23015;SDS011;11674;52.428;13.584;2023-10-08T09:02:55;3.40;;;1.15;;
23015;SDS011;11674;52.428;13.584;2023-10-08T09:08:05;2.25;;;1.13;;
23015;SDS011;11674;52.428;13.584;2023-10-08T09:13:12;2.38;;;0.80;;
23015;SDS011;11674;52.428;13.584;2023-10-08T09:18:20;2.55;;;0.90;;
23015;SDS011;11674;52.428;13.584;2023-10-08T09:23:28;4.00;;;0.73;;
23015;SDS011;11674;52.428;13.584;2023-10-08T09:28:37;2.28;;;1.00;;
23015;SDS011;11674;52.428;13.584;2023-10-08T09:33:53;2.10;;;1.00;;
23015;SDS011;11674;52.428;13.584;2023-10-08T09:39:01;3.67;;;0.88;;
23015;SDS011;11674;52.428;13.584;2023-10-08T09:44:09;1.98;;;0.82;;
23015;SDS011;11674;52.428;13.584;2023-10-08T09:49:21;1.17;;;0.75;;
23015;SDS011;11674;52.428;13.584;2023-10-08T09:54:52;3.50;;;1.13;;
23015;SDS011;11674;52.428;13.584;2023-10-08T10:00:06;3.75;;;1.15;;
23015;SDS011;11674;52.428;13.584;2023-10-08T10:05:20;3.53;;;0.80;;
23015;SDS011;11674;52.428;13.584;2023-10-08T10:15:41;2.23;;;0.70;;
23015;SDS011;11674;52.428;13.584;2023-10-08T10:20:53;2.47;;;1.00;;
23015;SDS011;11674;52.428;13.584;2023-10-08T10:26:04;2.03;;;1.00;;
23015;SDS011;11674;52.428;13.584;2023-10-08T10:31:31;2.70;;;0.90;;
23015;SDS011;11674;52.428;13.584;2023-10-08T10:36:39;0.75;;;0.60;;
23015;SDS011;11674;52.428;13.584;2023-10-08T10:41:47;4.85;;;0.73;;
23015;SDS011;11674;52.428;13.584;2023-10-08T10:46:55;1.38;;;0.60;;
23015;SDS011;11674;52.428;13.584;2023-10-08T10:52:03;1.75;;;0.82;;
23015;SDS011;11674;52.428;13.584;2023-10-08T10:57:10;3.70;;;0.90;;
23015;SDS011;11674;52.428;13.584;2023-10-08T11:02:17;1.10;;;0.80;;
23015;SDS011;11674;52.428;13.584;2023-10-08T11:07:24;0.90;;;0.68;;
23015;SDS011;11674;52.428;13.584;2023-10-08T11:12:36;2.45;;;0.90;;
23015;SDS011;11674;52.428;13.584;2023-10-08T11:17:44;2.47;;;0.80;;
23015;SDS011;11674;52.428;13.584;2023-10-08T11:22:51;4.15;;;0.90;;
23015;SDS011;11674;52.428;13.584;2023-10-08T11:28:00;2.92;;;0.70;;
23015;SDS011;11674;52.428;13.584;2023-10-08T11:33:07;0.95;;;0.50;;
23015;SDS011;11674;52.428;13.584;2023-10-08T11:38:14;1.58;;;0.75;;
23015;SDS011;11674;52.428;13.584;2023-10-08T11:43:22;1.20;;;0.73;;
23015;SDS011;11674;52.428;13.584;2023-10-08T11:48:35;3.92;;;0.65;;
23015;SDS011;11674;52.428;13.584;2023-10-08T11:53:43;2.95;;;0.88;;
23015;SDS011;11674;52.428;13.584;2023-10-08T11:58:50;2.42;;;0.90;;
23015;SDS011;11674;52.428;13.584;2023-10-08T12:03:57;1.75;;;0.95;;
23015;SDS011;11674;52.428;13.584;2023-10-08T12:09:04;1.90;;;0.95;;
23015;SDS011;11674;52.428;13.584;2023-10-08T12:14:11;0.82;;;0.60;;
23015;SDS011;11674;52.428;13.584;2023-10-08T12:19:18;1.73;;;0.70;;
23015;SDS011;11674;52.428;13.584;2023-10-08T12:24:25;1.38;;;0.70;;
23015;SDS011;11674;52.428;13.584;2023-10-08T12:29:32;1.10;;;0.80;;
23015;SDS011;11674;52.428;13.584;2023-10-08T12:34:39;2.15;;;0.88;;
23015;SDS011;11674;52.428;13.584;2023-10-08T12:39:46;1.88;;;0.95;;
23015;SDS011;11674;52.428;13.584;2023-10-08T12:44:53;1.15;;;0.75;;
23015;SDS011;11674;52.428;13.584;2023-10-08T12:50:00;2.03;;;0.90;;
23015;SDS011;11674;52.428;13.584;2023-10-08T12:55:07;1.55;;;1.00;;
23015;SDS011;11674;52.428;13.584;2023-10-08T13:00:17;2.60;;;0.80;;
23015;SDS011;11674;52.428;13.584;2023-10-08T13:05:24;2.42;;;1.38;;
23015;SDS011;11674;52.428;13.584;2023-10-08T13:10:31;2.42;;;1.20;;
23015;SDS011;11674;52.428;13.584;2023-10-08T13:15:38;3.17;;;1.00;;
23015;SDS011;11674;52.428;13.584;2023-10-08T13:20:53;2.03;;;0.82;;
23015;SDS011;11674;52.428;13.584;2023-10-08T13:26:00;1.27;;;0.80;;
23015;SDS011;11674;52.428;13.584;2023-10-08T13:31:07;1.65;;;0.75;;
23015;SDS011;11674;52.428;13.584;2023-10-08T13:36:15;1.42;;;0.75;;
23015;SDS011;11674;52.428;13.584;2023-10-08T13:41:22;1.98;;;0.80;;
23015;SDS011;11674;52.428;13.584;2023-10-08T13:46:29;1.15;;;0.70;;
23015;SDS011;11674;52.428;13.584;2023-10-08T13:51:38;1.40;;;0.70;;
23015;SDS011;11674;52.428;13.584;2023-10-08T13:56:45;1.23;;;0.95;;
23015;SDS011;11674;52.428;13.584;2023-10-08T14:01:52;3.15;;;1.00;;
23015;SDS011;11674;52.428;13.584;2023-10-08T14:07:01;2.92;;;1.17;;
23015;SDS011;11674;52.428;13.584;2023-10-08T14:12:14;1.50;;;0.77;;
23015;SDS011;11674;52.428;13.584;2023-10-08T14:17:21;1.88;;;0.80;;
23015;SDS011;11674;52.428;13.584;2023-10-08T14:22:28;1.60;;;0.90;;
23015;SDS011;11674;52.428;13.584;2023-10-08T14:27:35;2.15;;;1.10;;
23015;SDS011;11674;52.428;13.584;2023-10-08T14:32:42;2.53;;;0.98;;
23015;SDS011;11674;52.428;13.584;2023-10-08T14:37:49;2.35;;;0.90;;
23015;SDS011;11674;52.428;13.584;2023-10-08T14:42:56;1.77;;;0.90;;
23015;SDS011;11674;52.428;13.584;2023-10-08T14:48:05;1.95;;;0.90;;
23015;SDS011;11674;52.428;13.584;2023-10-08T14:53:12;3.25;;;1.95;;
23015;SDS011;11674;52.428;13.584;2023-10-08T14:58:19;1.70;;;0.60;;
23015;SDS011;11674;52.428;13.584;2023-10-08T15:03:28;3.00;;;0.95;;
23015;SDS011;11674;52.428;13.584;2023-10-08T15:08:35;3.78;;;0.93;;
23015;SDS011;11674;52.428;13.584;2023-10-08T15:13:42;2.97;;;0.90;;
23015;SDS011;11674;52.428;13.584;2023-10-08T15:18:49;1.55;;;0.80;;
23015;SDS011;11674;52.428;13.584;2023-10-08T15:23:59;2.20;;;1.23;;
23015;SDS011;11674;52.428;13.584;2023-10-08T15:29:08;1.42;;;0.93;;
23015;SDS011;11674;52.428;13.584;2023-10-08T15:34:15;2.85;;;1.00;;
23015;SDS011;11674;52.428;13.584;2023-10-08T15:39:22;3.35;;;1.05;;
23015;SDS011;11674;52.428;13.584;2023-10-08T15:44:32;5.10;;;1.05;;
23015;SDS011;11674;52.428;13.584;2023-10-08T15:49:39;3.05;;;1.00;;
23015;SDS011;11674;52.428;13.584;2023-10-08T15:54:47;2.20;;;1.02;;
23015;SDS011;11674;52.428;13.584;2023-10-08T15:59:57;7.45;;;1.27;;
23015;SDS011;11674;52.428;13.584;2023-10-08T16:05:07;2.38;;;1.17;;
23015;SDS011;11674;52.428;13.584;2023-10-08T16:10:14;2.05;;;1.10;;
23015;SDS011;11674;52.428;13.584;2023-10-08T16:15:21;4.90;;;1.40;;
23015;SDS011;11674;52.428;13.584;2023-10-08T16:20:28;3.28;;;1.13;;
23015;SDS011;11674;52.428;13.584;2023-10-08T16:25:36;4.55;;;1.40;;
23015;SDS011;11674;52.428;13.584;2023-10-08T16:30:43;2.80;;;1.20;;
23015;SDS011;11674;52.428;13.584;2023-10-08T16:35:50;6.38;;;2.80;;
23015;SDS011;11674;52.428;13.584;2023-10-08T16:40:57;5.25;;;2.60;;
23015;SDS011;11674;52.428;13.584;2023-10-08T16:46:04;3.67;;;1.80;;
23015;SDS011;11674;52.428;13.584;2023-10-08T16:51:11;9.52;;;4.97;;
23015;SDS011;11674;52.428;13.584;2023-10-08T16:56:18;4.22;;;2.78;;
23015;SDS011;11674;52.428;13.584;2023-10-08T17:01:25;2.83;;;2.10;;
23015;SDS011;11674;52.428;13.584;2023-10-08T17:06:32;4.40;;;2.50;;
23015;SDS011;11674;52.428;13.584;2023-10-08T17:11:40;5.10;;;2.28;;
23015;SDS011;11674;52.428;13.584;2023-10-08T17:16:47;8.27;;;2.70;;
23015;SDS011;11674;52.428;13.584;2023-10-08T17:21:54;6.40;;;2.80;;
23015;SDS011;11674;52.428;13.584;2023-10-08T17:27:01;5.47;;;2.95;;
23015;SDS011;11674;52.428;13.584;2023-10-08T17:32:08;5.45;;;2.90;;
23015;SDS011;11674;52.428;13.584;2023-10-08T17:37:15;5.43;;;2.60;;
23015;SDS011;11674;52.428;13.584;2023-10-08T17:42:25;5.85;;;2.28;;
23015;SDS011;11674;52.428;13.584;2023-10-08T17:47:32;4.18;;;2.13;;
23015;SDS011;11674;52.428;13.584;2023-10-08T17:52:39;2.33;;;1.70;;
23015;SDS011;11674;52.428;13.584;2023-10-08T17:57:46;4.88;;;1.80;;
23015;SDS011;11674;52.428;13.584;2023-10-08T18:02:53;5.28;;;1.60;;
23015;SDS011;11674;52.428;13.584;2023-10-08T18:08:00;3.85;;;1.90;;
23015;SDS011;11674;52.428;13.584;2023-10-08T18:13:07;3.80;;;1.45;;
23015;SDS011;11674;52.428;13.584;2023-10-08T18:18:14;3.55;;;1.90;;
23015;SDS011;11674;52.428;13.584;2023-10-08T18:23:21;3.45;;;1.60;;
23015;SDS011;11674;52.428;13.584;2023-10-08T18:28:28;3.00;;;2.08;;
23015;SDS011;11674;52.428;13.584;2023-10-08T18:33:36;5.63;;;1.67;;
23015;SDS011;11674;52.428;13.584;2023-10-08T18:38:44;3.15;;;1.48;;
23015;SDS011;11674;52.428;13.584;2023-10-08T18:43:54;4.40;;;1.75;;
23015;SDS011;11674;52.428;13.584;2023-10-08T18:49:07;3.80;;;1.73;;
23015;SDS011;11674;52.428;13.584;2023-10-08T18:54:17;3.80;;;1.70;;
23015;SDS011;11674;52.428;13.584;2023-10-08T18:59:24;3.20;;;1.50;;
23015;SDS011;11674;52.428;13.584;2023-10-08T19:04:33;4.65;;;1.98;;
23015;SDS011;11674;52.428;13.584;2023-10-08T19:09:40;6.10;;;2.10;;
23015;SDS011;11674;52.428;13.584;2023-10-08T19:14:52;6.68;;;2.17;;
23015;SDS011;11674;52.428;13.584;2023-10-08T19:19:59;3.13;;;1.90;;
23015;SDS011;11674;52.428;13.584;2023-10-08T19:25:06;4.05;;;1.80;;
23015;SDS011;11674;52.428;13.584;2023-10-08T19:30:13;2.90;;;1.80;;
23015;SDS011;11674;52.428;13.584;2023-10-08T19:35:20;3.03;;;2.05;;
23015;SDS011;11674;52.428;13.584;2023-10-08T19:40:27;4.32;;;1.70;;
23015;SDS011;11674;52.428;13.584;2023-10-08T19:45:35;3.92;;;1.85;;
23015;SDS011;11674;52.428;13.584;2023-10-08T19:50:42;3.40;;;1.85;;
23015;SDS011;11674;52.428;13.584;2023-10-08T19:55:50;2.45;;;1.60;;
23015;SDS011;11674;52.428;13.584;2023-10-08T20:00:57;2.53;;;1.58;;
23015;SDS011;11674;52.428;13.584;2023-10-08T20:06:07;3.38;;;1.50;;
23015;SDS011;11674;52.428;13.584;2023-10-08T20:11:14;6.60;;;1.90;;
23015;SDS011;11674;52.428;13.584;2023-10-08T20:16:21;2.75;;;1.65;;
23015;SDS011;11674;52.428;13.584;2023-10-08T20:21:28;6.35;;;2.65;;
23015;SDS011;11674;52.428;13.584;2023-10-08T20:26:35;2.92;;;1.90;;
23015;SDS011;11674;52.428;13.584;2023-10-08T20:31:42;2.63;;;1.83;;
23015;SDS011;11674;52.428;13.584;2023-10-08T20:36:52;2.00;;;1.30;;
23015;SDS011;11674;52.428;13.584;2023-10-08T20:41:59;2.67;;;1.30;;
23015;SDS011;11674;52.428;13.584;2023-10-08T20:47:06;3.83;;;1.90;;
23015;SDS011;11674;52.428;13.584;2023-10-08T20:52:15;2.55;;;1.75;;
23015;SDS011;11674;52.428;13.584;2023-10-08T20:57:24;4.13;;;1.80;;
23015;SDS011;11674;52.428;13.584;2023-10-08T21:02:31;2.42;;;1.52;;
23015;SDS011;11674;52.428;13.584;2023-10-08T21:07:42;2.50;;;1.55;;
23015;SDS011;11674;52.428;13.584;2023-10-08T21:13:05;4.53;;;2.63;;
23015;SDS011;11674;52.428;13.584;2023-10-08T21:18:12;2.67;;;1.55;;
23015;SDS011;11674;52.428;13.584;2023-10-08T21:23:28;4.97;;;1.80;;
23015;SDS011;11674;52.428;13.584;2023-10-08T21:28:36;4.07;;;2.10;;
23015;SDS011;11674;52.428;13.584;2023-10-08T21:33:43;5.13;;;1.70;;
23015;SDS011;11674;52.428;13.584;2023-10-08T21:38:52;5.63;;;1.73;;
23015;SDS011;11674;52.428;13.584;2023-10-08T21:43:59;2.83;;;1.50;;
23015;SDS011;11674;52.428;13.584;2023-10-08T21:49:06;4.35;;;1.88;;
23015;SDS011;11674;52.428;13.584;2023-10-08T21:54:16;2.80;;;1.75;;
23015;SDS011;11674;52.428;13.584;2023-10-08T21:59:30;3.03;;;1.60;;
23015;SDS011;11674;52.428;13.584;2023-10-08T22:04:37;4.15;;;1.88;;
23015;SDS011;11674;52.428;13.584;2023-10-08T22:09:47;4.55;;;1.90;;
23015;SDS011;11674;52.428;13.584;2023-10-08T22:14:53;5.95;;;1.70;;
23015;SDS011;11674;52.428;13.584;2023-10-08T22:20:00;2.45;;;1.60;;
23015;SDS011;11674;52.428;13.584;2023-10-08T22:25:13;4.90;;;1.77;;
23015;SDS011;11674;52.428;13.584;2023-10-08T22:30:20;3.33;;;1.75;;
23015;SDS011;11674;52.428;13.584;2023-10-08T22:35:27;3.20;;;1.60;;
23015;SDS011;11674;52.428;13.584;2023-10-08T22:40:36;2.90;;;1.65;;
23015;SDS011;11674;52.428;13.584;2023-10-08T22:45:50;2.22;;;1.52;;
23015;SDS011;11674;52.428;13.584;2023-10-08T22:50:59;2.20;;;1.50;;
23015;SDS011;11674;52.428;13.584;2023-10-08T22:56:09;6.43;;;2.30;;
23015;SDS011;11674;52.428;13.584;2023-10-08T23:01:17;6.03;;;2.40;;
23015;SDS011;11674;52.428;13.584;2023-10-08T23:06:27;6.67;;;3.43;;
23015;SDS011;11674;52.428;13.584;2023-10-08T23:11:37;3.80;;;1.63;;
23015;SDS011;11674;52.428;13.584;2023-10-08T23:16:48;3.97;;;2.33;;
23015;SDS011;11674;52.428;13.584;2023-10-08T23:21:57;5.60;;;3.45;;
23015;SDS011;11674;52.428;13.584;2023-10-08T23:27:07;2.92;;;1.83;;
23015;SDS011;11674;52.428;13.584;2023-10-08T23:32:13;5.60;;;1.70;;
23015;SDS011;11674;52.428;13.584;2023-10-08T23:37:27;3.33;;;1.50;;
23015;SDS011;11674;52.428;13.584;2023-10-08T23:42:42;2.72;;;1.40;;
23015;SDS011;11674;52.428;13.584;2023-10-08T23:47:57;4.13;;;1.80;;
23015;SDS011;11674;52.428;13.584;2023-10-08T23:53:10;3.78;;;1.70;;
23015;SDS011;11674;52.428;13.584;2023-10-08T23:58:26;2.75;;;1.35;;
